sensor_id;sensor_type;location;lat;lon;timestamp;P1;durP1;ratioP1;P2;durP2;ratioP2
30147;SDS011;16960;49.404;8.248;2023-04-03T00:00:32;1.30;;;1.20;;
30147;SDS011;16960;49.404;8.248;2023-04-03T00:02:59;1.60;;;1.10;;
30147;SDS011;16960;49.404;8.248;2023-04-03T00:05:26;2.13;;;0.93;;
30147;SDS011;16960;49.404;8.248;2023-04-03T00:07:54;1.20;;;1.10;;
30147;SDS011;16960;49.404;8.248;2023-04-03T00:10:21;1.47;;;1.30;;
30147;SDS011;16960;49.404;8.248;2023-04-03T00:12:48;1.53;;;1.43;;
30147;SDS011;16960;49.404;8.248;2023-04-03T00:15:15;1.23;;;1.13;;
30147;SDS011;16960;49.404;8.248;2023-04-03T00:17:42;1.30;;;1.20;;
30147;SDS011;16960;49.404;8.248;2023-04-03T00:20:09;1.30;;;1.20;;
30147;SDS011;16960;49.404;8.248;2023-04-03T00:22:36;1.20;;;1.10;;
30147;SDS011;16960;49.404;8.248;2023-04-03T00:25:05;1.40;;;1.30;;
30147;SDS011;16960;49.404;8.248;2023-04-03T00:27:32;1.30;;;1.20;;
30147;SDS011;16960;49.404;8.248;2023-04-03T00:30:01;1.17;;;1.07;;
30147;SDS011;16960;49.404;8.248;2023-04-03T00:32:28;1.60;;;1.23;;
30147;SDS011;16960;49.404;8.248;2023-04-03T00:34:55;1.03;;;0.93;;
30147;SDS011;16960;49.404;8.248;2023-04-03T00:37:22;1.20;;;1.10;;
30147;SDS011;16960;49.404;8.248;2023-04-03T00:39:49;1.23;;;1.13;;
30147;SDS011;16960;49.404;8.248;2023-04-03T00:42:17;1.33;;;0.83;;
30147;SDS011;16960;49.404;8.248;2023-04-03T00:47:49;1.10;;;0.93;;
30147;SDS011;16960;49.404;8.248;2023-04-03T00:50:16;1.23;;;1.00;;
30147;SDS011;16960;49.404;8.248;2023-04-03T00:52:43;1.20;;;1.00;;
30147;SDS011;16960;49.404;8.248;2023-04-03T00:55:14;1.53;;;1.10;;
30147;SDS011;16960;49.404;8.248;2023-04-03T00:57:43;1.30;;;1.20;;
30147;SDS011;16960;49.404;8.248;2023-04-03T01:00:12;0.97;;;0.90;;
30147;SDS011;16960;49.404;8.248;2023-04-03T01:02:40;1.40;;;1.30;;
30147;SDS011;16960;49.404;8.248;2023-04-03T01:05:08;1.00;;;1.00;;
30147;SDS011;16960;49.404;8.248;2023-04-03T01:07:35;0.80;;;0.80;;
30147;SDS011;16960;49.404;8.248;2023-04-03T01:10:03;1.50;;;1.10;;
30147;SDS011;16960;49.404;8.248;2023-04-03T01:12:33;1.30;;;1.20;;
30147;SDS011;16960;49.404;8.248;2023-04-03T01:15:03;1.40;;;1.30;;
30147;SDS011;16960;49.404;8.248;2023-04-03T01:17:34;1.30;;;1.20;;
30147;SDS011;16960;49.404;8.248;2023-04-03T01:20:11;1.10;;;1.00;;
30147;SDS011;16960;49.404;8.248;2023-04-03T01:23:03;1.00;;;0.90;;
30147;SDS011;16960;49.404;8.248;2023-04-03T01:25:39;2.07;;;1.77;;
30147;SDS011;16960;49.404;8.248;2023-04-03T01:28:09;1.60;;;1.40;;
30147;SDS011;16960;49.404;8.248;2023-04-03T01:30:43;1.63;;;1.10;;
30147;SDS011;16960;49.404;8.248;2023-04-03T01:33:16;1.27;;;1.17;;
30147;SDS011;16960;49.404;8.248;2023-04-03T01:35:43;1.20;;;1.10;;
30147;SDS011;16960;49.404;8.248;2023-04-03T01:38:10;1.30;;;1.00;;
30147;SDS011;16960;49.404;8.248;2023-04-03T01:40:37;1.33;;;1.13;;
30147;SDS011;16960;49.404;8.248;2023-04-03T01:43:04;1.30;;;1.10;;
30147;SDS011;16960;49.404;8.248;2023-04-03T01:45:31;1.13;;;0.87;;
30147;SDS011;16960;49.404;8.248;2023-04-03T01:47:57;1.27;;;1.17;;
30147;SDS011;16960;49.404;8.248;2023-04-03T01:50:26;1.00;;;0.87;;
30147;SDS011;16960;49.404;8.248;2023-04-03T01:52:53;1.20;;;1.10;;
30147;SDS011;16960;49.404;8.248;2023-04-03T01:55:20;1.10;;;1.00;;
30147;SDS011;16960;49.404;8.248;2023-04-03T01:57:47;1.43;;;1.10;;
30147;SDS011;16960;49.404;8.248;2023-04-03T02:00:14;1.67;;;1.30;;
30147;SDS011;16960;49.404;8.248;2023-04-03T02:02:41;1.03;;;1.03;;
30147;SDS011;16960;49.404;8.248;2023-04-03T02:05:08;1.47;;;1.37;;
30147;SDS011;16960;49.404;8.248;2023-04-03T02:07:36;1.23;;;1.03;;
30147;SDS011;16960;49.404;8.248;2023-04-03T02:10:04;1.30;;;1.20;;
30147;SDS011;16960;49.404;8.248;2023-04-03T02:12:31;1.10;;;1.00;;
30147;SDS011;16960;49.404;8.248;2023-04-03T02:14:58;1.00;;;1.00;;
30147;SDS011;16960;49.404;8.248;2023-04-03T02:17:25;2.23;;;1.10;;
30147;SDS011;16960;49.404;8.248;2023-04-03T02:19:52;1.03;;;0.93;;
30147;SDS011;16960;49.404;8.248;2023-04-03T02:22:20;0.80;;;0.80;;
30147;SDS011;16960;49.404;8.248;2023-04-03T02:24:48;1.00;;;0.90;;
30147;SDS011;16960;49.404;8.248;2023-04-03T02:27:16;1.03;;;0.93;;
30147;SDS011;16960;49.404;8.248;2023-04-03T02:29:44;1.00;;;1.00;;
30147;SDS011;16960;49.404;8.248;2023-04-03T02:32:10;1.50;;;1.40;;
30147;SDS011;16960;49.404;8.248;2023-04-03T02:34:37;1.10;;;1.00;;
30147;SDS011;16960;49.404;8.248;2023-04-03T02:37:06;1.43;;;1.00;;
30147;SDS011;16960;49.404;8.248;2023-04-03T02:39:32;1.20;;;1.00;;
30147;SDS011;16960;49.404;8.248;2023-04-03T02:42:01;1.30;;;1.20;;
30147;SDS011;16960;49.404;8.248;2023-04-03T02:44:28;0.80;;;0.77;;
30147;SDS011;16960;49.404;8.248;2023-04-03T02:46:55;0.80;;;0.80;;
30147;SDS011;16960;49.404;8.248;2023-04-03T02:49:22;0.93;;;0.90;;
30147;SDS011;16960;49.404;8.248;2023-04-03T02:51:48;0.80;;;0.80;;
30147;SDS011;16960;49.404;8.248;2023-04-03T02:54:15;1.20;;;1.00;;
30147;SDS011;16960;49.404;8.248;2023-04-03T02:56:42;1.00;;;0.90;;
30147;SDS011;16960;49.404;8.248;2023-04-03T02:59:11;1.30;;;1.20;;
30147;SDS011;16960;49.404;8.248;2023-04-03T03:01:38;1.10;;;0.97;;
30147;SDS011;16960;49.404;8.248;2023-04-03T03:04:04;1.23;;;1.10;;
30147;SDS011;16960;49.404;8.248;2023-04-03T03:06:31;1.63;;;1.07;;
30147;SDS011;16960;49.404;8.248;2023-04-03T03:08:58;0.80;;;0.80;;
30147;SDS011;16960;49.404;8.248;2023-04-03T03:11:25;1.10;;;1.00;;
30147;SDS011;16960;49.404;8.248;2023-04-03T03:13:52;0.80;;;0.80;;
30147;SDS011;16960;49.404;8.248;2023-04-03T03:16:20;1.10;;;1.00;;
30147;SDS011;16960;49.404;8.248;2023-04-03T03:18:47;1.40;;;1.30;;
30147;SDS011;16960;49.404;8.248;2023-04-03T03:21:14;0.80;;;0.80;;
30147;SDS011;16960;49.404;8.248;2023-04-03T03:23:41;0.97;;;0.90;;
30147;SDS011;16960;49.404;8.248;2023-04-03T03:26:08;1.70;;;0.90;;
30147;SDS011;16960;49.404;8.248;2023-04-03T03:28:37;1.00;;;1.00;;
30147;SDS011;16960;49.404;8.248;2023-04-03T03:31:05;0.97;;;0.90;;
30147;SDS011;16960;49.404;8.248;2023-04-03T03:33:35;1.23;;;1.10;;
30147;SDS011;16960;49.404;8.248;2023-04-03T03:36:02;1.13;;;1.00;;
30147;SDS011;16960;49.404;8.248;2023-04-03T03:38:29;1.00;;;0.90;;
30147;SDS011;16960;49.404;8.248;2023-04-03T03:40:56;0.93;;;0.93;;
30147;SDS011;16960;49.404;8.248;2023-04-03T03:43:23;1.37;;;1.10;;
30147;SDS011;16960;49.404;8.248;2023-04-03T03:45:50;1.00;;;0.90;;
30147;SDS011;16960;49.404;8.248;2023-04-03T03:48:18;1.00;;;1.00;;
30147;SDS011;16960;49.404;8.248;2023-04-03T03:50:46;1.17;;;1.00;;
30147;SDS011;16960;49.404;8.248;2023-04-03T03:53:14;1.17;;;1.07;;
30147;SDS011;16960;49.404;8.248;2023-04-03T03:55:41;1.00;;;1.00;;
30147;SDS011;16960;49.404;8.248;2023-04-03T03:58:08;1.10;;;1.00;;
30147;SDS011;16960;49.404;8.248;2023-04-03T04:00:35;1.23;;;1.13;;
30147;SDS011;16960;49.404;8.248;2023-04-03T04:03:02;1.00;;;0.90;;
30147;SDS011;16960;49.404;8.248;2023-04-03T04:05:29;0.80;;;0.80;;
30147;SDS011;16960;49.404;8.248;2023-04-03T04:07:58;1.03;;;1.00;;
30147;SDS011;16960;49.404;8.248;2023-04-03T04:10:25;1.23;;;0.87;;
30147;SDS011;16960;49.404;8.248;2023-04-03T04:12:52;0.90;;;0.90;;
30147;SDS011;16960;49.404;8.248;2023-04-03T04:15:18;0.80;;;0.73;;
30147;SDS011;16960;49.404;8.248;2023-04-03T04:17:46;1.10;;;0.90;;
30147;SDS011;16960;49.404;8.248;2023-04-03T04:20:13;1.43;;;1.20;;
30147;SDS011;16960;49.404;8.248;2023-04-03T04:22:41;0.70;;;0.70;;
30147;SDS011;16960;49.404;8.248;2023-04-03T04:25:09;1.40;;;1.10;;
30147;SDS011;16960;49.404;8.248;2023-04-03T04:27:36;2.20;;;1.43;;
30147;SDS011;16960;49.404;8.248;2023-04-03T04:30:04;1.30;;;1.03;;
30147;SDS011;16960;49.404;8.248;2023-04-03T04:32:32;1.47;;;0.80;;
30147;SDS011;16960;49.404;8.248;2023-04-03T04:34:59;0.80;;;0.80;;
30147;SDS011;16960;49.404;8.248;2023-04-03T04:37:26;0.93;;;0.83;;
30147;SDS011;16960;49.404;8.248;2023-04-03T04:39:53;0.90;;;0.70;;
30147;SDS011;16960;49.404;8.248;2023-04-03T04:42:21;1.20;;;1.10;;
30147;SDS011;16960;49.404;8.248;2023-04-03T04:44:48;0.80;;;0.80;;
30147;SDS011;16960;49.404;8.248;2023-04-03T04:47:15;0.80;;;0.80;;
30147;SDS011;16960;49.404;8.248;2023-04-03T04:49:43;0.90;;;0.90;;
30147;SDS011;16960;49.404;8.248;2023-04-03T04:52:10;1.13;;;1.03;;
30147;SDS011;16960;49.404;8.248;2023-04-03T04:54:37;0.97;;;0.87;;
30147;SDS011;16960;49.404;8.248;2023-04-03T04:57:04;0.83;;;0.83;;
30147;SDS011;16960;49.404;8.248;2023-04-03T04:59:32;1.30;;;1.20;;
30147;SDS011;16960;49.404;8.248;2023-04-03T05:01:59;0.87;;;0.87;;
30147;SDS011;16960;49.404;8.248;2023-04-03T05:04:26;2.47;;;0.97;;
30147;SDS011;16960;49.404;8.248;2023-04-03T05:06:53;0.87;;;0.80;;
30147;SDS011;16960;49.404;8.248;2023-04-03T05:09:20;1.33;;;1.17;;
30147;SDS011;16960;49.404;8.248;2023-04-03T05:11:47;1.17;;;1.07;;
30147;SDS011;16960;49.404;8.248;2023-04-03T05:14:14;0.83;;;0.70;;
30147;SDS011;16960;49.404;8.248;2023-04-03T05:16:43;1.10;;;0.83;;
30147;SDS011;16960;49.404;8.248;2023-04-03T05:19:09;1.33;;;0.93;;
30147;SDS011;16960;49.404;8.248;2023-04-03T05:21:36;0.77;;;0.77;;
30147;SDS011;16960;49.404;8.248;2023-04-03T05:24:04;1.13;;;0.90;;
30147;SDS011;16960;49.404;8.248;2023-04-03T05:26:34;0.73;;;0.73;;
30147;SDS011;16960;49.404;8.248;2023-04-03T05:29:01;2.37;;;0.90;;
30147;SDS011;16960;49.404;8.248;2023-04-03T05:31:28;0.70;;;0.70;;
30147;SDS011;16960;49.404;8.248;2023-04-03T05:33:57;1.03;;;0.93;;
30147;SDS011;16960;49.404;8.248;2023-04-03T05:36:23;2.07;;;1.00;;
30147;SDS011;16960;49.404;8.248;2023-04-03T05:38:51;1.73;;;1.17;;
30147;SDS011;16960;49.404;8.248;2023-04-03T05:41:21;0.90;;;0.87;;
30147;SDS011;16960;49.404;8.248;2023-04-03T05:43:48;1.53;;;1.20;;
30147;SDS011;16960;49.404;8.248;2023-04-03T05:46:16;1.27;;;0.90;;
30147;SDS011;16960;49.404;8.248;2023-04-03T05:48:44;0.93;;;0.80;;
30147;SDS011;16960;49.404;8.248;2023-04-03T05:51:14;0.90;;;0.90;;
30147;SDS011;16960;49.404;8.248;2023-04-03T05:53:42;1.20;;;1.10;;
30147;SDS011;16960;49.404;8.248;2023-04-03T05:56:10;1.10;;;0.83;;
30147;SDS011;16960;49.404;8.248;2023-04-03T05:58:37;1.97;;;1.20;;
30147;SDS011;16960;49.404;8.248;2023-04-03T06:01:04;1.30;;;1.20;;
30147;SDS011;16960;49.404;8.248;2023-04-03T06:03:31;1.10;;;0.83;;
30147;SDS011;16960;49.404;8.248;2023-04-03T06:05:58;1.07;;;0.97;;
30147;SDS011;16960;49.404;8.248;2023-04-03T06:08:26;1.00;;;0.90;;
30147;SDS011;16960;49.404;8.248;2023-04-03T06:10:54;5.60;;;1.70;;
30147;SDS011;16960;49.404;8.248;2023-04-03T06:13:21;0.80;;;0.80;;
30147;SDS011;16960;49.404;8.248;2023-04-03T06:15:48;1.10;;;1.00;;
30147;SDS011;16960;49.404;8.248;2023-04-03T06:18:15;1.50;;;1.10;;
30147;SDS011;16960;49.404;8.248;2023-04-03T06:20:42;1.20;;;0.83;;
30147;SDS011;16960;49.404;8.248;2023-04-03T06:23:09;0.97;;;0.87;;
30147;SDS011;16960;49.404;8.248;2023-04-03T06:25:38;1.40;;;1.10;;
30147;SDS011;16960;49.404;8.248;2023-04-03T06:28:05;1.43;;;1.00;;
30147;SDS011;16960;49.404;8.248;2023-04-03T06:30:34;1.43;;;1.00;;
30147;SDS011;16960;49.404;8.248;2023-04-03T06:33:01;6.60;;;1.67;;
30147;SDS011;16960;49.404;8.248;2023-04-03T06:35:28;3.23;;;1.50;;
30147;SDS011;16960;49.404;8.248;2023-04-03T06:37:55;5.00;;;1.50;;
30147;SDS011;16960;49.404;8.248;2023-04-03T06:40:23;2.20;;;1.40;;
30147;SDS011;16960;49.404;8.248;2023-04-03T06:42:52;1.70;;;1.00;;
30147;SDS011;16960;49.404;8.248;2023-04-03T06:45:19;1.50;;;1.40;;
30147;SDS011;16960;49.404;8.248;2023-04-03T06:47:46;1.70;;;1.30;;
30147;SDS011;16960;49.404;8.248;2023-04-03T06:50:13;1.57;;;1.47;;
30147;SDS011;16960;49.404;8.248;2023-04-03T06:52:40;2.00;;;1.20;;
30147;SDS011;16960;49.404;8.248;2023-04-03T06:55:08;3.03;;;1.83;;
30147;SDS011;16960;49.404;8.248;2023-04-03T06:57:35;1.80;;;1.20;;
30147;SDS011;16960;49.404;8.248;2023-04-03T07:00:04;1.30;;;1.07;;
30147;SDS011;16960;49.404;8.248;2023-04-03T07:02:34;2.20;;;1.53;;
30147;SDS011;16960;49.404;8.248;2023-04-03T07:05:01;1.40;;;1.30;;
30147;SDS011;16960;49.404;8.248;2023-04-03T07:07:28;2.40;;;1.30;;
30147;SDS011;16960;49.404;8.248;2023-04-03T07:09:55;2.30;;;1.70;;
30147;SDS011;16960;49.404;8.248;2023-04-03T07:12:22;1.23;;;1.13;;
30147;SDS011;16960;49.404;8.248;2023-04-03T07:14:49;2.80;;;2.60;;
30147;SDS011;16960;49.404;8.248;2023-04-03T07:17:17;1.47;;;1.30;;
30147;SDS011;16960;49.404;8.248;2023-04-03T07:19:44;2.90;;;1.30;;
30147;SDS011;16960;49.404;8.248;2023-04-03T07:22:11;1.63;;;1.30;;
30147;SDS011;16960;49.404;8.248;2023-04-03T07:24:38;1.90;;;1.30;;
30147;SDS011;16960;49.404;8.248;2023-04-03T07:27:05;2.40;;;2.20;;
30147;SDS011;16960;49.404;8.248;2023-04-03T07:29:33;4.23;;;2.80;;
30147;SDS011;16960;49.404;8.248;2023-04-03T07:32:00;5.87;;;2.97;;
30147;SDS011;16960;49.404;8.248;2023-04-03T07:34:29;5.30;;;3.47;;
30147;SDS011;16960;49.404;8.248;2023-04-03T07:36:56;5.80;;;3.70;;
30147;SDS011;16960;49.404;8.248;2023-04-03T07:39:24;4.23;;;3.13;;
30147;SDS011;16960;49.404;8.248;2023-04-03T07:41:51;3.13;;;2.83;;
30147;SDS011;16960;49.404;8.248;2023-04-03T07:44:18;3.50;;;2.77;;
30147;SDS011;16960;49.404;8.248;2023-04-03T07:46:45;4.57;;;2.60;;
30147;SDS011;16960;49.404;8.248;2023-04-03T07:49:12;3.43;;;2.50;;
30147;SDS011;16960;49.404;8.248;2023-04-03T07:51:40;4.50;;;2.73;;
30147;SDS011;16960;49.404;8.248;2023-04-03T07:54:07;4.67;;;2.93;;
30147;SDS011;16960;49.404;8.248;2023-04-03T07:56:34;3.93;;;2.53;;
30147;SDS011;16960;49.404;8.248;2023-04-03T07:59:01;2.90;;;2.47;;
30147;SDS011;16960;49.404;8.248;2023-04-03T08:01:28;3.17;;;2.07;;
30147;SDS011;16960;49.404;8.248;2023-04-03T08:03:57;2.57;;;2.03;;
30147;SDS011;16960;49.404;8.248;2023-04-03T08:06:24;3.40;;;2.27;;
30147;SDS011;16960;49.404;8.248;2023-04-03T08:08:52;4.37;;;1.93;;
30147;SDS011;16960;49.404;8.248;2023-04-03T08:11:19;2.70;;;1.80;;
30147;SDS011;16960;49.404;8.248;2023-04-03T08:13:47;2.43;;;1.90;;
30147;SDS011;16960;49.404;8.248;2023-04-03T08:16:15;3.13;;;1.80;;
30147;SDS011;16960;49.404;8.248;2023-04-03T08:18:44;2.90;;;1.93;;
30147;SDS011;16960;49.404;8.248;2023-04-03T08:21:11;2.57;;;2.37;;
30147;SDS011;16960;49.404;8.248;2023-04-03T08:23:38;3.63;;;2.37;;
30147;SDS011;16960;49.404;8.248;2023-04-03T08:26:10;3.97;;;1.90;;
30147;SDS011;16960;49.404;8.248;2023-04-03T08:28:38;3.37;;;2.47;;
30147;SDS011;16960;49.404;8.248;2023-04-03T08:31:06;4.30;;;2.37;;
30147;SDS011;16960;49.404;8.248;2023-04-03T08:33:36;3.23;;;2.10;;
30147;SDS011;16960;49.404;8.248;2023-04-03T08:36:03;1.83;;;1.33;;
30147;SDS011;16960;49.404;8.248;2023-04-03T08:38:31;3.77;;;1.87;;
30147;SDS011;16960;49.404;8.248;2023-04-03T08:40:59;2.63;;;1.70;;
30147;SDS011;16960;49.404;8.248;2023-04-03T08:43:33;2.43;;;1.87;;
30147;SDS011;16960;49.404;8.248;2023-04-03T08:46:05;2.00;;;1.60;;
30147;SDS011;16960;49.404;8.248;2023-04-03T08:48:38;2.50;;;2.10;;
30147;SDS011;16960;49.404;8.248;2023-04-03T08:51:09;3.53;;;2.10;;
30147;SDS011;16960;49.404;8.248;2023-04-03T08:53:40;2.40;;;1.80;;
30147;SDS011;16960;49.404;8.248;2023-04-03T08:56:11;2.90;;;2.20;;
30147;SDS011;16960;49.404;8.248;2023-04-03T08:58:46;2.30;;;1.57;;
30147;SDS011;16960;49.404;8.248;2023-04-03T09:01:19;2.07;;;1.87;;
30147;SDS011;16960;49.404;8.248;2023-04-03T09:03:49;2.83;;;1.90;;
30147;SDS011;16960;49.404;8.248;2023-04-03T09:06:17;2.17;;;1.70;;
30147;SDS011;16960;49.404;8.248;2023-04-03T09:08:49;1.70;;;1.60;;
30147;SDS011;16960;49.404;8.248;2023-04-03T09:11:36;1.43;;;1.30;;
30147;SDS011;16960;49.404;8.248;2023-04-03T09:14:15;2.23;;;1.80;;
30147;SDS011;16960;49.404;8.248;2023-04-03T09:16:52;2.90;;;1.30;;
30147;SDS011;16960;49.404;8.248;2023-04-03T09:19:25;1.43;;;1.33;;
30147;SDS011;16960;49.404;8.248;2023-04-03T09:22:02;2.90;;;2.03;;
30147;SDS011;16960;49.404;8.248;2023-04-03T09:24:38;2.13;;;1.47;;
30147;SDS011;16960;49.404;8.248;2023-04-03T09:27:06;2.40;;;1.73;;
30147;SDS011;16960;49.404;8.248;2023-04-03T09:29:38;1.90;;;1.37;;
30147;SDS011;16960;49.404;8.248;2023-04-03T09:32:12;1.63;;;1.23;;
30147;SDS011;16960;49.404;8.248;2023-04-03T09:34:47;2.23;;;1.47;;
30147;SDS011;16960;49.404;8.248;2023-04-03T09:37:33;1.30;;;1.20;;
30147;SDS011;16960;49.404;8.248;2023-04-03T09:40:02;1.83;;;1.53;;
30147;SDS011;16960;49.404;8.248;2023-04-03T09:42:30;3.80;;;1.40;;
30147;SDS011;16960;49.404;8.248;2023-04-03T09:44:59;2.50;;;1.53;;
30147;SDS011;16960;49.404;8.248;2023-04-03T09:47:29;1.13;;;1.13;;
30147;SDS011;16960;49.404;8.248;2023-04-03T09:50:17;1.50;;;1.40;;
30147;SDS011;16960;49.404;8.248;2023-04-03T09:52:46;1.60;;;1.33;;
30147;SDS011;16960;49.404;8.248;2023-04-03T09:55:16;2.13;;;1.00;;
30147;SDS011;16960;49.404;8.248;2023-04-03T09:57:44;1.20;;;1.00;;
30147;SDS011;16960;49.404;8.248;2023-04-03T10:00:21;2.00;;;1.30;;
30147;SDS011;16960;49.404;8.248;2023-04-03T10:02:50;1.83;;;1.20;;
30147;SDS011;16960;49.404;8.248;2023-04-03T10:05:28;4.13;;;1.30;;
30147;SDS011;16960;49.404;8.248;2023-04-03T10:08:07;2.33;;;1.17;;
30147;SDS011;16960;49.404;8.248;2023-04-03T10:10:36;3.70;;;1.20;;
30147;SDS011;16960;49.404;8.248;2023-04-03T10:13:04;1.73;;;1.37;;
30147;SDS011;16960;49.404;8.248;2023-04-03T10:15:36;2.03;;;0.80;;
30147;SDS011;16960;49.404;8.248;2023-04-03T10:18:13;2.93;;;1.70;;
30147;SDS011;16960;49.404;8.248;2023-04-03T10:20:52;2.20;;;1.10;;
30147;SDS011;16960;49.404;8.248;2023-04-03T10:23:22;1.50;;;1.40;;
30147;SDS011;16960;49.404;8.248;2023-04-03T10:25:57;4.33;;;1.20;;
30147;SDS011;16960;49.404;8.248;2023-04-03T10:28:38;1.60;;;1.20;;
30147;SDS011;16960;49.404;8.248;2023-04-03T10:31:13;3.20;;;1.10;;
30147;SDS011;16960;49.404;8.248;2023-04-03T10:33:52;1.20;;;1.10;;
30147;SDS011;16960;49.404;8.248;2023-04-03T10:36:29;1.17;;;1.00;;
30147;SDS011;16960;49.404;8.248;2023-04-03T10:39:08;1.63;;;1.00;;
30147;SDS011;16960;49.404;8.248;2023-04-03T10:41:45;1.87;;;1.33;;
30147;SDS011;16960;49.404;8.248;2023-04-03T10:44:20;1.40;;;1.30;;
30147;SDS011;16960;49.404;8.248;2023-04-03T10:47:00;2.13;;;1.23;;
30147;SDS011;16960;49.404;8.248;2023-04-03T10:49:36;3.10;;;1.07;;
30147;SDS011;16960;49.404;8.248;2023-04-03T10:52:14;1.70;;;1.10;;
30147;SDS011;16960;49.404;8.248;2023-04-03T10:54:47;2.10;;;1.03;;
30147;SDS011;16960;49.404;8.248;2023-04-03T10:57:21;2.47;;;1.40;;
30147;SDS011;16960;49.404;8.248;2023-04-03T10:59:51;1.70;;;1.00;;
30147;SDS011;16960;49.404;8.248;2023-04-03T11:02:24;2.20;;;1.13;;
30147;SDS011;16960;49.404;8.248;2023-04-03T11:04:54;2.37;;;1.50;;
30147;SDS011;16960;49.404;8.248;2023-04-03T11:07:26;1.40;;;1.00;;
30147;SDS011;16960;49.404;8.248;2023-04-03T11:09:57;1.27;;;1.10;;
30147;SDS011;16960;49.404;8.248;2023-04-03T11:12:29;1.60;;;1.03;;
30147;SDS011;16960;49.404;8.248;2023-04-03T11:15:02;1.83;;;1.20;;
30147;SDS011;16960;49.404;8.248;2023-04-03T11:17:33;1.53;;;1.07;;
30147;SDS011;16960;49.404;8.248;2023-04-03T11:20:06;1.50;;;1.20;;
30147;SDS011;16960;49.404;8.248;2023-04-03T11:22:42;1.73;;;1.10;;
30147;SDS011;16960;49.404;8.248;2023-04-03T11:25:14;1.20;;;1.10;;
30147;SDS011;16960;49.404;8.248;2023-04-03T11:27:47;1.10;;;1.00;;
30147;SDS011;16960;49.404;8.248;2023-04-03T11:30:18;2.50;;;1.20;;
30147;SDS011;16960;49.404;8.248;2023-04-03T11:33:01;4.33;;;1.47;;
30147;SDS011;16960;49.404;8.248;2023-04-03T11:35:48;1.20;;;1.00;;
30147;SDS011;16960;49.404;8.248;2023-04-03T11:38:19;3.73;;;1.10;;
30147;SDS011;16960;49.404;8.248;2023-04-03T11:40:51;1.40;;;1.30;;
30147;SDS011;16960;49.404;8.248;2023-04-03T11:43:23;1.10;;;0.90;;
30147;SDS011;16960;49.404;8.248;2023-04-03T11:45:55;1.43;;;1.00;;
30147;SDS011;16960;49.404;8.248;2023-04-03T11:54:42;4.20;;;1.10;;
30147;SDS011;16960;49.404;8.248;2023-04-03T12:12:41;2.17;;;1.40;;
30147;SDS011;16960;49.404;8.248;2023-04-03T12:15:12;1.30;;;1.10;;
30147;SDS011;16960;49.404;8.248;2023-04-03T12:17:47;1.40;;;1.30;;
30147;SDS011;16960;49.404;8.248;2023-04-03T12:23:29;1.17;;;1.07;;
30147;SDS011;16960;49.404;8.248;2023-04-03T12:26:02;1.00;;;0.90;;
30147;SDS011;16960;49.404;8.248;2023-04-03T12:28:36;2.40;;;1.00;;
30147;SDS011;16960;49.404;8.248;2023-04-03T12:31:05;1.73;;;1.10;;
30147;SDS011;16960;49.404;8.248;2023-04-03T12:33:38;3.10;;;1.30;;
30147;SDS011;16960;49.404;8.248;2023-04-03T12:36:23;1.00;;;0.80;;
30147;SDS011;16960;49.404;8.248;2023-04-03T12:39:09;2.00;;;0.90;;
30147;SDS011;16960;49.404;8.248;2023-04-03T12:41:51;2.57;;;1.20;;
30147;SDS011;16960;49.404;8.248;2023-04-03T12:44:26;1.40;;;0.90;;
30147;SDS011;16960;49.404;8.248;2023-04-03T12:47:06;1.30;;;0.90;;
30147;SDS011;16960;49.404;8.248;2023-04-03T12:49:46;1.40;;;1.23;;
30147;SDS011;16960;49.404;8.248;2023-04-03T12:52:17;1.77;;;0.90;;
30147;SDS011;16960;49.404;8.248;2023-04-03T12:54:49;2.00;;;0.77;;
30147;SDS011;16960;49.404;8.248;2023-04-03T12:57:19;1.73;;;0.97;;
30147;SDS011;16960;49.404;8.248;2023-04-03T12:59:49;1.10;;;1.00;;
30147;SDS011;16960;49.404;8.248;2023-04-03T13:02:21;1.70;;;1.13;;
30147;SDS011;16960;49.404;8.248;2023-04-03T13:04:50;2.30;;;1.03;;
30147;SDS011;16960;49.404;8.248;2023-04-03T13:07:22;3.67;;;1.50;;
30147;SDS011;16960;49.404;8.248;2023-04-03T13:09:56;3.47;;;1.50;;
30147;SDS011;16960;49.404;8.248;2023-04-03T13:12:29;2.20;;;1.20;;
30147;SDS011;16960;49.404;8.248;2023-04-03T13:14:57;2.60;;;1.37;;
30147;SDS011;16960;49.404;8.248;2023-04-03T13:17:25;3.47;;;1.40;;
30147;SDS011;16960;49.404;8.248;2023-04-03T13:19:52;1.37;;;1.27;;
30147;SDS011;16960;49.404;8.248;2023-04-03T13:22:25;6.00;;;1.50;;
30147;SDS011;16960;49.404;8.248;2023-04-03T13:24:56;3.17;;;1.17;;
30147;SDS011;16960;49.404;8.248;2023-04-03T13:27:27;1.87;;;1.60;;
30147;SDS011;16960;49.404;8.248;2023-04-03T13:29:58;2.30;;;1.30;;
30147;SDS011;16960;49.404;8.248;2023-04-03T13:32:28;1.93;;;1.03;;
30147;SDS011;16960;49.404;8.248;2023-04-03T13:34:58;2.60;;;1.43;;
30147;SDS011;16960;49.404;8.248;2023-04-03T13:37:26;3.00;;;1.40;;
30147;SDS011;16960;49.404;8.248;2023-04-03T13:39:58;2.60;;;1.20;;
30147;SDS011;16960;49.404;8.248;2023-04-03T13:42:29;3.33;;;1.63;;
30147;SDS011;16960;49.404;8.248;2023-04-03T13:45:11;1.60;;;1.07;;
30147;SDS011;16960;49.404;8.248;2023-04-03T13:47:45;2.60;;;1.07;;
30147;SDS011;16960;49.404;8.248;2023-04-03T13:50:14;1.23;;;0.90;;
30147;SDS011;16960;49.404;8.248;2023-04-03T13:52:47;2.60;;;1.03;;
30147;SDS011;16960;49.404;8.248;2023-04-03T13:55:18;1.00;;;0.90;;
30147;SDS011;16960;49.404;8.248;2023-04-03T13:57:53;1.10;;;1.00;;
30147;SDS011;16960;49.404;8.248;2023-04-03T14:00:27;1.30;;;1.20;;
30147;SDS011;16960;49.404;8.248;2023-04-03T14:02:56;1.43;;;1.03;;
30147;SDS011;16960;49.404;8.248;2023-04-03T14:05:25;1.37;;;1.27;;
30147;SDS011;16960;49.404;8.248;2023-04-03T14:07:52;1.80;;;1.00;;
30147;SDS011;16960;49.404;8.248;2023-04-03T14:10:20;2.40;;;1.10;;
30147;SDS011;16960;49.404;8.248;2023-04-03T14:12:47;1.33;;;1.03;;
30147;SDS011;16960;49.404;8.248;2023-04-03T14:15:18;1.70;;;1.10;;
30147;SDS011;16960;49.404;8.248;2023-04-03T14:17:49;1.90;;;1.00;;
30147;SDS011;16960;49.404;8.248;2023-04-03T14:20:18;1.80;;;1.07;;
30147;SDS011;16960;49.404;8.248;2023-04-03T14:22:47;2.73;;;1.20;;
30147;SDS011;16960;49.404;8.248;2023-04-03T14:25:15;2.40;;;1.20;;
30147;SDS011;16960;49.404;8.248;2023-04-03T14:27:44;1.03;;;0.80;;
30147;SDS011;16960;49.404;8.248;2023-04-03T14:30:15;1.87;;;1.03;;
30147;SDS011;16960;49.404;8.248;2023-04-03T14:32:45;1.37;;;0.90;;
30147;SDS011;16960;49.404;8.248;2023-04-03T14:35:13;2.70;;;1.17;;
30147;SDS011;16960;49.404;8.248;2023-04-03T14:37:40;0.90;;;0.90;;
30147;SDS011;16960;49.404;8.248;2023-04-03T14:40:08;1.33;;;1.07;;
30147;SDS011;16960;49.404;8.248;2023-04-03T14:42:39;2.00;;;1.10;;
30147;SDS011;16960;49.404;8.248;2023-04-03T14:45:07;2.50;;;1.40;;
30147;SDS011;16960;49.404;8.248;2023-04-03T14:47:39;3.57;;;1.27;;
30147;SDS011;16960;49.404;8.248;2023-04-03T14:50:11;1.53;;;0.73;;
30147;SDS011;16960;49.404;8.248;2023-04-03T14:52:42;1.10;;;1.00;;
30147;SDS011;16960;49.404;8.248;2023-04-03T14:55:11;1.37;;;0.87;;
30147;SDS011;16960;49.404;8.248;2023-04-03T14:57:38;1.20;;;1.10;;
30147;SDS011;16960;49.404;8.248;2023-04-03T15:00:07;1.73;;;1.00;;
30147;SDS011;16960;49.404;8.248;2023-04-03T15:02:39;1.13;;;0.80;;
30147;SDS011;16960;49.404;8.248;2023-04-03T15:05:07;3.30;;;1.30;;
30147;SDS011;16960;49.404;8.248;2023-04-03T15:07:36;1.50;;;1.20;;
30147;SDS011;16960;49.404;8.248;2023-04-03T15:10:13;1.90;;;1.10;;
30147;SDS011;16960;49.404;8.248;2023-04-03T15:12:43;1.30;;;0.80;;
30147;SDS011;16960;49.404;8.248;2023-04-03T15:15:11;1.60;;;0.90;;
30147;SDS011;16960;49.404;8.248;2023-04-03T15:17:39;1.30;;;1.20;;
30147;SDS011;16960;49.404;8.248;2023-04-03T15:20:10;1.30;;;0.80;;
30147;SDS011;16960;49.404;8.248;2023-04-03T15:22:39;1.40;;;1.03;;
30147;SDS011;16960;49.404;8.248;2023-04-03T15:25:06;1.30;;;0.80;;
30147;SDS011;16960;49.404;8.248;2023-04-03T15:27:34;1.10;;;1.00;;
30147;SDS011;16960;49.404;8.248;2023-04-03T15:30:01;1.83;;;0.90;;